sensor_id;sensor_type;location;lat;lon;timestamp;pressure;altitude;pressure_sealevel;temperature;humidity
12963;BME280;6546;49.882;8.666;2023-01-01T00:00:07;99892.59;;;13.89;100.00
12963;BME280;6546;49.882;8.666;2023-01-01T00:02:36;99889.16;;;13.87;100.00
12963;BME280;6546;49.882;8.666;2023-01-01T00:05:03;99894.41;;;13.84;100.00
12963;BME280;6546;49.882;8.666;2023-01-01T00:07:29;99900.47;;;13.85;100.00
12963;BME280;6546;49.882;8.666;2023-01-01T00:09:56;99898.75;;;13.81;100.00
12963;BME280;6546;49.882;8.666;2023-01-01T00:12:40;99901.41;;;13.76;100.00
12963;BME280;6546;49.882;8.666;2023-01-01T00:15:07;99896.13;;;13.84;100.00
12963;BME280;6546;49.882;8.666;2023-01-01T00:17:34;99905.75;;;13.79;100.00
12963;BME280;6546;49.882;8.666;2023-01-01T00:20:01;99897.06;;;13.78;100.00
12963;BME280;6546;49.882;8.666;2023-01-01T00:22:28;99892.81;;;13.71;100.00
12963;BME280;6546;49.882;8.666;2023-01-01T00:24:55;99897.09;;;13.73;100.00
12963;BME280;6546;49.882;8.666;2023-01-01T00:27:22;99906.69;;;13.70;100.00
12963;BME280;6546;49.882;8.666;2023-01-01T00:29:48;99903.22;;;13.68;100.00
12963;BME280;6546;49.882;8.666;2023-01-01T00:32:15;99905.84;;;13.66;100.00
12963;BME280;6546;49.882;8.666;2023-01-01T00:34:41;99912.84;;;13.61;100.00
12963;BME280;6546;49.882;8.666;2023-01-01T00:37:09;99906.75;;;13.64;100.00
12963;BME280;6546;49.882;8.666;2023-01-01T00:39:36;99899.81;;;13.66;100.00
12963;BME280;6546;49.882;8.666;2023-01-01T00:42:02;99913.72;;;13.59;100.00
12963;BME280;6546;49.882;8.666;2023-01-01T00:44:29;99920.59;;;13.66;100.00
12963;BME280;6546;49.882;8.666;2023-01-01T00:46:56;99919.75;;;13.62;100.00
12963;BME280;6546;49.882;8.666;2023-01-01T00:49:22;99921.59;;;13.53;100.00
12963;BME280;6546;49.882;8.666;2023-01-01T00:51:49;99916.44;;;13.43;100.00
12963;BME280;6546;49.882;8.666;2023-01-01T00:54:16;99920.84;;;13.38;100.00
12963;BME280;6546;49.882;8.666;2023-01-01T00:56:43;99921.75;;;13.31;100.00
12963;BME280;6546;49.882;8.666;2023-01-01T00:59:10;99923.50;;;13.29;100.00
12963;BME280;6546;49.882;8.666;2023-01-01T01:01:36;99920.94;;;13.23;100.00
12963;BME280;6546;49.882;8.666;2023-01-01T01:04:05;99921.84;;;13.19;100.00
12963;BME280;6546;49.882;8.666;2023-01-01T01:06:31;99919.25;;;13.19;100.00
12963;BME280;6546;49.882;8.666;2023-01-01T01:08:58;99918.41;;;13.14;100.00
12963;BME280;6546;49.882;8.666;2023-01-01T01:11:26;99909.81;;;13.07;100.00
12963;BME280;6546;49.882;8.666;2023-01-01T01:13:54;99901.19;;;13.02;100.00
12963;BME280;6546;49.882;8.666;2023-01-01T01:16:23;99918.50;;;13.00;100.00
12963;BME280;6546;49.882;8.666;2023-01-01T01:18:51;99909.00;;;12.97;100.00
12963;BME280;6546;49.882;8.666;2023-01-01T01:21:20;99916.78;;;12.99;100.00
12963;BME280;6546;49.882;8.666;2023-01-01T01:23:47;99917.66;;;12.98;100.00
12963;BME280;6546;49.882;8.666;2023-01-01T01:26:16;99912.47;;;12.93;100.00
12963;BME280;6546;49.882;8.666;2023-01-01T01:28:44;99920.25;;;12.93;100.00
12963;BME280;6546;49.882;8.666;2023-01-01T01:31:11;99913.41;;;12.89;100.00
12963;BME280;6546;49.882;8.666;2023-01-01T01:33:42;99917.72;;;12.87;100.00
12963;BME280;6546;49.882;8.666;2023-01-01T01:36:09;99916.88;;;12.87;100.00
12963;BME280;6546;49.882;8.666;2023-01-01T01:38:37;99918.59;;;12.88;100.00
12963;BME280;6546;49.882;8.666;2023-01-01T01:41:04;99922.91;;;12.87;100.00
12963;BME280;6546;49.882;8.666;2023-01-01T01:43:49;99912.53;;;12.84;100.00
12963;BME280;6546;49.882;8.666;2023-01-01T01:46:17;99917.72;;;12.84;100.00
12963;BME280;6546;49.882;8.666;2023-01-01T01:48:48;99919.47;;;12.85;100.00
12963;BME280;6546;49.882;8.666;2023-01-01T01:51:19;99918.56;;;12.94;100.00
12963;BME280;6546;49.882;8.666;2023-01-01T01:53:51;99914.13;;;13.05;100.00
12963;BME280;6546;49.882;8.666;2023-01-01T01:56:24;99920.13;;;13.13;100.00
12963;BME280;6546;49.882;8.666;2023-01-01T01:58:53;99908.75;;;13.31;100.00
12963;BME280;6546;49.882;8.666;2023-01-01T02:01:19;99908.69;;;13.39;100.00
12963;BME280;6546;49.882;8.666;2023-01-01T02:03:50;99899.94;;;13.51;100.00
12963;BME280;6546;49.882;8.666;2023-01-01T02:06:19;99907.66;;;13.61;100.00
12963;BME280;6546;49.882;8.666;2023-01-01T02:08:47;99904.16;;;13.65;100.00
12963;BME280;6546;49.882;8.666;2023-01-01T02:11:14;99897.16;;;13.70;100.00
12963;BME280;6546;49.882;8.666;2023-01-01T02:13:41;99892.69;;;13.83;100.00
12963;BME280;6546;49.882;8.666;2023-01-01T02:16:12;99889.09;;;13.93;100.00
12963;BME280;6546;49.882;8.666;2023-01-01T02:18:45;99891.59;;;14.01;100.00
12963;BME280;6546;49.882;8.666;2023-01-01T02:21:14;99883.75;;;14.06;100.00
12963;BME280;6546;49.882;8.666;2023-01-01T02:24:01;99899.31;;;14.12;100.00
12963;BME280;6546;49.882;8.666;2023-01-01T02:26:45;99900.94;;;14.19;100.00
12963;BME280;6546;49.882;8.666;2023-01-01T02:29:31;99909.59;;;14.21;100.00
12963;BME280;6546;49.882;8.666;2023-01-01T02:32:03;99900.84;;;14.27;100.00
12963;BME280;6546;49.882;8.666;2023-01-01T02:34:35;99898.19;;;14.33;100.00
12963;BME280;6546;49.882;8.666;2023-01-01T02:37:06;99898.09;;;14.39;100.00
12963;BME280;6546;49.882;8.666;2023-01-01T02:39:36;99899.81;;;14.41;100.00
12963;BME280;6546;49.882;8.666;2023-01-01T02:42:06;99918.81;;;14.46;100.00
12963;BME280;6546;49.882;8.666;2023-01-01T02:44:39;99915.34;;;14.46;100.00
12963;BME280;6546;49.882;8.666;2023-01-01T02:47:08;99915.25;;;14.55;100.00
12963;BME280;6546;49.882;8.666;2023-01-01T02:49:37;99924.88;;;14.48;100.00
12963;BME280;6546;49.882;8.666;2023-01-01T02:52:08;99931.81;;;14.51;100.00
12963;BME280;6546;49.882;8.666;2023-01-01T02:54:42;99924.91;;;14.45;100.00
12963;BME280;6546;49.882;8.666;2023-01-01T02:57:22;99936.09;;;14.55;100.00
12963;BME280;6546;49.882;8.666;2023-01-01T03:00:00;99942.13;;;14.59;100.00
12963;BME280;6546;49.882;8.666;2023-01-01T03:02:57;99936.97;;;14.53;100.00
12963;BME280;6546;49.882;8.666;2023-01-01T03:05:30;99938.75;;;14.51;100.00
12963;BME280;6546;49.882;8.666;2023-01-01T03:08:06;99934.50;;;14.40;100.00
12963;BME280;6546;49.882;8.666;2023-01-01T03:10:41;99931.00;;;14.43;100.00
12963;BME280;6546;49.882;8.666;2023-01-01T03:13:14;99935.34;;;14.42;100.00
12963;BME280;6546;49.882;8.666;2023-01-01T03:15:47;99936.31;;;14.32;100.00
12963;BME280;6546;49.882;8.666;2023-01-01T03:18:18;99933.72;;;14.32;100.00
12963;BME280;6546;49.882;8.666;2023-01-01T03:20:49;99936.34;;;14.31;100.00
12963;BME280;6546;49.882;8.666;2023-01-01T03:23:21;99933.72;;;14.34;100.00
12963;BME280;6546;49.882;8.666;2023-01-01T03:25:52;99928.59;;;14.29;100.00
12963;BME280;6546;49.882;8.666;2023-01-01T03:28:22;99942.34;;;14.36;100.00
12963;BME280;6546;49.882;8.666;2023-01-01T03:30:51;99941.44;;;14.41;100.00
12963;BME280;6546;49.882;8.666;2023-01-01T03:33:22;99940.53;;;14.45;100.00
12963;BME280;6546;49.882;8.666;2023-01-01T03:35:54;99938.78;;;14.44;100.00
12963;BME280;6546;49.882;8.666;2023-01-01T03:38:25;99938.84;;;14.41;100.00
12963;BME280;6546;49.882;8.666;2023-01-01T03:40:58;99938.88;;;14.38;100.00
12963;BME280;6546;49.882;8.666;2023-01-01T03:43:33;99944.13;;;14.32;100.00
12963;BME280;6546;49.882;8.666;2023-01-01T03:46:06;99940.63;;;14.36;100.00
12963;BME280;6546;49.882;8.666;2023-01-01T03:48:33;99939.03;;;14.25;100.00
12963;BME280;6546;49.882;8.666;2023-01-01T03:51:24;99937.22;;;14.31;100.00
12963;BME280;6546;49.882;8.666;2023-01-01T03:53:55;99939.75;;;14.36;100.00
12963;BME280;6546;49.882;8.666;2023-01-01T03:56:33;99947.56;;;14.37;100.00
12963;BME280;6546;49.882;8.666;2023-01-01T03:59:07;99957.88;;;14.46;100.00
12963;BME280;6546;49.882;8.666;2023-01-01T04:01:40;99957.00;;;14.46;100.00
12963;BME280;6546;49.882;8.666;2023-01-01T04:04:09;99953.56;;;14.42;100.00
12963;BME280;6546;49.882;8.666;2023-01-01T04:06:36;99951.84;;;14.41;100.00
12963;BME280;6546;49.882;8.666;2023-01-01T04:09:04;99957.94;;;14.39;100.00
12963;BME280;6546;49.882;8.666;2023-01-01T04:11:35;99951.09;;;14.33;100.00
12963;BME280;6546;49.882;8.666;2023-01-01T04:14:26;99952.84;;;14.28;100.00
12963;BME280;6546;49.882;8.666;2023-01-01T04:16:55;99957.16;;;14.32;100.00
12963;BME280;6546;49.882;8.666;2023-01-01T04:19:22;99958.00;;;14.34;100.00
12963;BME280;6546;49.882;8.666;2023-01-01T04:21:48;99957.16;;;14.32;100.00
12963;BME280;6546;49.882;8.666;2023-01-01T04:24:15;99955.50;;;14.27;100.00
12963;BME280;6546;49.882;8.666;2023-01-01T04:26:41;99966.69;;;14.33;100.00
12963;BME280;6546;49.882;8.666;2023-01-01T04:29:08;99954.59;;;14.28;100.00
12963;BME280;6546;49.882;8.666;2023-01-01T04:31:35;99947.75;;;14.22;100.00
12963;BME280;6546;49.882;8.666;2023-01-01T04:34:03;99940.69;;;14.30;100.00
12963;BME280;6546;49.882;8.666;2023-01-01T04:36:30;99951.09;;;14.33;100.00
12963;BME280;6546;49.882;8.666;2023-01-01T04:38:56;99954.59;;;14.28;100.00
12963;BME280;6546;49.882;8.666;2023-01-01T04:41:23;99958.06;;;14.28;100.00
12963;BME280;6546;49.882;8.666;2023-01-01T04:43:49;99969.34;;;14.30;100.00
12963;BME280;6546;49.882;8.666;2023-01-01T04:46:17;99963.25;;;14.28;100.00
12963;BME280;6546;49.882;8.666;2023-01-01T04:48:44;99975.28;;;14.41;100.00
12963;BME280;6546;49.882;8.666;2023-01-01T04:51:13;99968.31;;;14.43;100.00
12963;BME280;6546;49.882;8.666;2023-01-01T04:53:40;99975.31;;;14.38;100.00
12963;BME280;6546;49.882;8.666;2023-01-01T04:56:09;99970.00;;;14.44;100.00
12963;BME280;6546;49.882;8.666;2023-01-01T04:58:37;99967.53;;;14.35;100.00
12963;BME280;6546;49.882;8.666;2023-01-01T05:01:05;99965.06;;;14.23;100.00
12963;BME280;6546;49.882;8.666;2023-01-01T05:03:32;99973.72;;;14.25;100.00
12963;BME280;6546;49.882;8.666;2023-01-01T05:05:59;99973.72;;;14.25;100.00
12963;BME280;6546;49.882;8.666;2023-01-01T05:08:28;99971.84;;;14.36;100.00
12963;BME280;6546;49.882;8.666;2023-01-01T05:10:59;99978.81;;;14.37;100.00
12963;BME280;6546;49.882;8.666;2023-01-01T05:13:26;99979.75;;;14.27;100.00
12963;BME280;6546;49.882;8.666;2023-01-01T05:15:53;99987.56;;;14.27;100.00
12963;BME280;6546;49.882;8.666;2023-01-01T05:18:19;99988.50;;;14.25;100.00
12963;BME280;6546;49.882;8.666;2023-01-01T05:20:46;99990.25;;;14.21;100.00
12963;BME280;6546;49.882;8.666;2023-01-01T05:23:14;99989.34;;;14.25;100.00
12963;BME280;6546;49.882;8.666;2023-01-01T05:25:42;100002.34;;;14.25;100.00
12963;BME280;6546;49.882;8.666;2023-01-01T05:28:08;99985.94;;;14.20;100.00
12963;BME280;6546;49.882;8.666;2023-01-01T05:30:38;100000.63;;;14.26;100.00
12963;BME280;6546;49.882;8.666;2023-01-01T05:33:04;100008.47;;;14.21;100.00
12963;BME280;6546;49.882;8.666;2023-01-01T05:35:31;100000.69;;;14.18;100.00
12963;BME280;6546;49.882;8.666;2023-01-01T05:37:57;100007.56;;;14.23;100.00
12963;BME280;6546;49.882;8.666;2023-01-01T05:40:24;100013.69;;;14.21;100.00
12963;BME280;6546;49.882;8.666;2023-01-01T05:42:52;100011.97;;;14.20;100.00
12963;BME280;6546;49.882;8.666;2023-01-01T05:45:19;100014.56;;;14.20;100.00
12963;BME280;6546;49.882;8.666;2023-01-01T05:47:45;100011.06;;;14.21;100.00
12963;BME280;6546;49.882;8.666;2023-01-01T05:50:12;100020.72;;;14.10;100.00
12963;BME280;6546;49.882;8.666;2023-01-01T05:52:38;100019.03;;;14.03;100.00
12963;BME280;6546;49.882;8.666;2023-01-01T05:55:06;100017.31;;;14.02;100.00
12963;BME280;6546;49.882;8.666;2023-01-01T05:57:32;100022.56;;;14.00;100.00
12963;BME280;6546;49.882;8.666;2023-01-01T06:00:00;100015.59;;;14.01;100.00
12963;BME280;6546;49.882;8.666;2023-01-01T06:02:29;100026.00;;;14.02;100.00
12963;BME280;6546;49.882;8.666;2023-01-01T06:04:56;100020.81;;;14.01;100.00
12963;BME280;6546;49.882;8.666;2023-01-01T06:07:22;100026.06;;;13.96;100.00
12963;BME280;6546;49.882;8.666;2023-01-01T06:09:49;100023.47;;;13.93;100.00
12963;BME280;6546;49.882;8.666;2023-01-01T06:12:15;100022.63;;;13.92;100.00
12963;BME280;6546;49.882;8.666;2023-01-01T06:14:42;100033.91;;;13.90;100.00
12963;BME280;6546;49.882;8.666;2023-01-01T06:17:10;100029.59;;;13.87;100.00
12963;BME280;6546;49.882;8.666;2023-01-01T06:19:36;100032.22;;;13.87;100.00
12963;BME280;6546;49.882;8.666;2023-01-01T06:22:03;100041.72;;;13.88;100.00
12963;BME280;6546;49.882;8.666;2023-01-01T06:24:30;100039.94;;;13.95;100.00
12963;BME280;6546;49.882;8.666;2023-01-01T06:26:56;100036.41;;;14.01;100.00
12963;BME280;6546;49.882;8.666;2023-01-01T06:29:23;100041.63;;;13.97;100.00
12963;BME280;6546;49.882;8.666;2023-01-01T06:31:49;100041.59;;;14.04;100.00
12963;BME280;6546;49.882;8.666;2023-01-01T06:34:17;100035.53;;;14.02;100.00
12963;BME280;6546;49.882;8.666;2023-01-01T06:36:44;100041.56;;;14.05;100.00
12963;BME280;6546;49.882;8.666;2023-01-01T06:39:10;100045.06;;;14.03;100.00
12963;BME280;6546;49.882;8.666;2023-01-01T06:41:37;100053.81;;;13.95;100.00
12963;BME280;6546;49.882;8.666;2023-01-01T06:44:03;100056.50;;;13.85;100.00
12963;BME280;6546;49.882;8.666;2023-01-01T06:46:31;100053.00;;;13.87;100.00
12963;BME280;6546;49.882;8.666;2023-01-01T06:49:00;100053.81;;;13.95;100.00
12963;BME280;6546;49.882;8.666;2023-01-01T06:51:29;100062.44;;;13.97;100.00
12963;BME280;6546;49.882;8.666;2023-01-01T06:53:57;100062.44;;;14.01;100.00
12963;BME280;6546;49.882;8.666;2023-01-01T06:56:27;100067.56;;;14.07;100.00
12963;BME280;6546;49.882;8.666;2023-01-01T06:58:54;100055.50;;;14.00;100.00
12963;BME280;6546;49.882;8.666;2023-01-01T07:01:23;100065.03;;;14.01;100.00
12963;BME280;6546;49.882;8.666;2023-01-01T07:03:51;100069.38;;;14.00;100.00
12963;BME280;6546;49.882;8.666;2023-01-01T07:06:18;100079.81;;;13.95;100.00
12963;BME280;6546;49.882;8.666;2023-01-01T07:08:47;100084.97;;;13.98;100.00
12963;BME280;6546;49.882;8.666;2023-01-01T07:11:13;100081.53;;;13.96;100.00
12963;BME280;6546;49.882;8.666;2023-01-01T07:13:40;100101.56;;;13.87;100.00
12963;BME280;6546;49.882;8.666;2023-01-01T07:16:07;100086.84;;;13.84;100.00
12963;BME280;6546;49.882;8.666;2023-01-01T07:18:34;100100.72;;;13.83;100.00
12963;BME280;6546;49.882;8.666;2023-01-01T07:21:02;100092.03;;;13.84;100.00
12963;BME280;6546;49.882;8.666;2023-01-01T07:23:31;100081.72;;;13.75;100.00
12963;BME280;6546;49.882;8.666;2023-01-01T07:26:00;100080.00;;;13.74;100.00
12963;BME280;6546;49.882;8.666;2023-01-01T07:28:26;100086.81;;;13.86;100.00
12963;BME280;6546;49.882;8.666;2023-01-01T07:30:53;100085.19;;;13.74;100.00
12963;BME280;6546;49.882;8.666;2023-01-01T07:33:22;100081.72;;;13.72;100.00
12963;BME280;6546;49.882;8.666;2023-01-01T07:35:49;100089.56;;;13.67;100.00
12963;BME280;6546;49.882;8.666;2023-01-01T07:38:15;100089.53;;;13.72;100.00
12963;BME280;6546;49.882;8.666;2023-01-01T07:40:42;100092.06;;;13.81;100.00
12963;BME280;6546;49.882;8.666;2023-01-01T07:43:10;100105.94;;;13.83;100.00
12963;BME280;6546;49.882;8.666;2023-01-01T07:45:38;100114.63;;;13.79;100.00
12963;BME280;6546;49.882;8.666;2023-01-01T07:48:06;100108.50;;;13.85;100.00
12963;BME280;6546;49.882;8.666;2023-01-01T07:50:34;100112.84;;;13.81;100.00
12963;BME280;6546;49.882;8.666;2023-01-01T07:53:02;100124.16;;;13.79;100.00
12963;BME280;6546;49.882;8.666;2023-01-01T07:55:29;100132.00;;;13.72;100.00
12963;BME280;6546;49.882;8.666;2023-01-01T07:57:55;100140.63;;;13.76;100.00
12963;BME280;6546;49.882;8.666;2023-01-01T08:00:23;100142.34;;;13.80;100.00
12963;BME280;6546;49.882;8.666;2023-01-01T08:02:50;100147.53;;;13.82;100.00
12963;BME280;6546;49.882;8.666;2023-01-01T08:05:17;100139.66;;;13.89;100.00
12963;BME280;6546;49.882;8.666;2023-01-01T08:07:45;100146.66;;;13.81;100.00
12963;BME280;6546;49.882;8.666;2023-01-01T08:10:13;100152.75;;;13.77;100.00
12963;BME280;6546;49.882;8.666;2023-01-01T08:12:39;100146.72;;;13.78;100.00
12963;BME280;6546;49.882;8.666;2023-01-01T08:15:07;100132.84;;;13.73;100.00
12963;BME280;6546;49.882;8.666;2023-01-01T08:17:36;100137.19;;;13.74;100.00
12963;BME280;6546;49.882;8.666;2023-01-01T08:20:03;100137.16;;;13.77;100.00
12963;BME280;6546;49.882;8.666;2023-01-01T08:22:30;100144.06;;;13.84;100.00
12963;BME280;6546;49.882;8.666;2023-01-01T08:24:56;100149.31;;;13.75;100.00
12963;BME280;6546;49.882;8.666;2023-01-01T08:27:23;100160.59;;;13.72;100.00
12963;BME280;6546;49.882;8.666;2023-01-01T08:29:49;100153.66;;;13.73;100.00
12963;BME280;6546;49.882;8.666;2023-01-01T08:32:16;100150.25;;;13.66;100.00
12963;BME280;6546;49.882;8.666;2023-01-01T08:34:44;100134.63;;;13.68;100.00
12963;BME280;6546;49.882;8.666;2023-01-01T08:37:11;100145.00;;;13.71;100.00
12963;BME280;6546;49.882;8.666;2023-01-01T08:39:38;100157.13;;;13.75;100.00
12963;BME280;6546;49.882;8.666;2023-01-01T08:42:05;100158.88;;;13.70;100.00
12963;BME280;6546;49.882;8.666;2023-01-01T08:44:32;100153.66;;;13.73;100.00
12963;BME280;6546;49.882;8.666;2023-01-01T08:46:58;100171.03;;;13.69;100.00
12963;BME280;6546;49.882;8.666;2023-01-01T08:49:25;100176.19;;;13.72;100.00
12963;BME280;6546;49.882;8.666;2023-01-01T08:51:53;100177.94;;;13.70;100.00
12963;BME280;6546;49.882;8.666;2023-01-01T08:54:20;100176.19;;;13.76;100.00
12963;BME280;6546;49.882;8.666;2023-01-01T08:56:46;100180.47;;;13.81;100.00
12963;BME280;6546;49.882;8.666;2023-01-01T08:59:13;100179.63;;;13.82;100.00
12963;BME280;6546;49.882;8.666;2023-01-01T09:01:39;100183.94;;;13.83;100.00
12963;BME280;6546;49.882;8.666;2023-01-01T09:04:06;100190.81;;;13.93;100.00
12963;BME280;6546;49.882;8.666;2023-01-01T09:06:36;100192.50;;;13.97;100.00
12963;BME280;6546;49.882;8.666;2023-01-01T09:09:04;100202.88;;;14.04;100.00
12963;BME280;6546;49.882;8.666;2023-01-01T09:11:31;100201.97;;;14.09;100.00
12963;BME280;6546;49.882;8.666;2023-01-01T09:13:57;100197.66;;;14.08;100.00
12963;BME280;6546;49.882;8.666;2023-01-01T09:16:24;100204.59;;;14.08;100.00
12963;BME280;6546;49.882;8.666;2023-01-01T09:18:51;100205.41;;;14.13;100.00
12963;BME280;6546;49.882;8.666;2023-01-01T09:21:17;100201.03;;;14.18;100.00
12963;BME280;6546;49.882;8.666;2023-01-01T09:23:44;100206.22;;;14.21;100.00
12963;BME280;6546;49.882;8.666;2023-01-01T09:26:12;100212.25;;;14.28;100.00
12963;BME280;6546;49.882;8.666;2023-01-01T09:28:38;100219.13;;;14.35;100.00
12963;BME280;6546;49.882;8.666;2023-01-01T09:31:05;100228.59;;;14.43;100.00
12963;BME280;6546;49.882;8.666;2023-01-01T09:33:31;100232.06;;;14.45;100.00
12963;BME280;6546;49.882;8.666;2023-01-01T09:36:11;100239.00;;;14.51;100.00
12963;BME280;6546;49.882;8.666;2023-01-01T09:38:47;100245.03;;;14.56;100.00
12963;BME280;6546;49.882;8.666;2023-01-01T09:41:20;100246.75;;;14.59;100.00
12963;BME280;6546;49.882;8.666;2023-01-01T09:43:56;100248.41;;;14.66;100.00
12963;BME280;6546;49.882;8.666;2023-01-01T09:46:26;100238.91;;;14.63;100.00
12963;BME280;6546;49.882;8.666;2023-01-01T09:48:55;100240.66;;;14.63;100.00
12963;BME280;6546;49.882;8.666;2023-01-01T09:51:23;100239.75;;;14.64;100.00
12963;BME280;6546;49.882;8.666;2023-01-01T09:53:54;100231.94;;;14.64;100.00
12963;BME280;6546;49.882;8.666;2023-01-01T09:56:26;100236.28;;;14.65;100.00
12963;BME280;6546;49.882;8.666;2023-01-01T09:58:55;100231.94;;;14.64;100.00
12963;BME280;6546;49.882;8.666;2023-01-01T10:01:32;100241.41;;;14.74;100.00
12963;BME280;6546;49.882;8.666;2023-01-01T10:04:17;100240.56;;;14.69;100.00
12963;BME280;6546;49.882;8.666;2023-01-01T10:06:59;100226.72;;;14.67;100.00
12963;BME280;6546;49.882;8.666;2023-01-01T10:09:34;100218.03;;;14.65;100.00
12963;BME280;6546;49.882;8.666;2023-01-01T10:12:11;100215.41;;;14.68;100.00
12963;BME280;6546;49.882;8.666;2023-01-01T10:14:44;100221.47;;;14.70;100.00
12963;BME280;6546;49.882;8.666;2023-01-01T10:17:16;100215.41;;;14.68;100.00
12963;BME280;6546;49.882;8.666;2023-01-01T10:19:45;100214.59;;;14.64;100.00
12963;BME280;6546;49.882;8.666;2023-01-01T10:22:17;100218.94;;;14.64;100.00
12963;BME280;6546;49.882;8.666;2023-01-01T10:24:49;100220.66;;;14.66;100.00
12963;BME280;6546;49.882;8.666;2023-01-01T10:27:27;100217.06;;;14.80;100.00
12963;BME280;6546;49.882;8.666;2023-01-01T10:29:56;100212.75;;;14.74;100.00
12963;BME280;6546;49.882;8.666;2023-01-01T10:32:27;100213.63;;;14.73;100.00
12963;BME280;6546;49.882;8.666;2023-01-01T10:34:54;100217.94;;;14.74;100.00
12963;BME280;6546;49.882;8.666;2023-01-01T10:37:21;100207.41;;;14.86;100.00
12963;BME280;6546;49.882;8.666;2023-01-01T10:39:48;100213.44;;;14.96;100.00
12963;BME280;6546;49.882;8.666;2023-01-01T10:42:15;100215.97;;;15.01;100.00
12963;BME280;6546;49.882;8.666;2023-01-01T10:44:43;100216.75;;;15.07;100.00
12963;BME280;6546;49.882;8.666;2023-01-01T10:47:22;100211.34;;;15.27;100.00
12963;BME280;6546;49.882;8.666;2023-01-01T10:49:54;100208.56;;;15.38;100.00
12963;BME280;6546;49.882;8.666;2023-01-01T10:52:24;100219.88;;;15.40;100.00
12963;BME280;6546;49.882;8.666;2023-01-01T10:54:51;100211.19;;;15.38;100.00
12963;BME280;6546;49.882;8.666;2023-01-01T10:57:27;100211.97;;;15.47;100.00
12963;BME280;6546;49.882;8.666;2023-01-01T11:00:08;100209.41;;;15.41;100.00
12963;BME280;6546;49.882;8.666;2023-01-01T11:02:36;100213.78;;;15.39;100.00
12963;BME280;6546;49.882;8.666;2023-01-01T11:05:14;100225.13;;;15.37;100.00
12963;BME280;6546;49.882;8.666;2023-01-01T11:07:42;100214.72;;;15.35;100.00
12963;BME280;6546;49.882;8.666;2023-01-01T11:10:16;100211.16;;;15.42;100.00
12963;BME280;6546;49.882;8.666;2023-01-01T11:12:43;100211.09;;;15.45;100.00
12963;BME280;6546;49.882;8.666;2023-01-01T11:15:22;100208.50;;;15.45;100.00
12963;BME280;6546;49.882;8.666;2023-01-01T11:17:49;100207.56;;;15.51;100.00
12963;BME280;6546;49.882;8.666;2023-01-01T11:20:17;100196.28;;;15.51;100.00
12963;BME280;6546;49.882;8.666;2023-01-01T11:22:46;100199.63;;;15.59;100.00
12963;BME280;6546;49.882;8.666;2023-01-01T11:25:18;100193.50;;;15.67;100.00
12963;BME280;6546;49.882;8.666;2023-01-01T11:27:46;100190.03;;;15.62;100.00
12963;BME280;6546;49.882;8.666;2023-01-01T11:30:24;100184.03;;;15.56;100.00
12963;BME280;6546;49.882;8.666;2023-01-01T11:32:54;100183.97;;;15.59;100.00
12963;BME280;6546;49.882;8.666;2023-01-01T11:35:24;100183.94;;;15.62;100.00
12963;BME280;6546;49.882;8.666;2023-01-01T11:37:53;100189.16;;;15.62;100.00
12963;BME280;6546;49.882;8.666;2023-01-01T11:40:23;100189.19;;;15.59;100.00
12963;BME280;6546;49.882;8.666;2023-01-01T11:42:52;100177.06;;;15.56;100.00
12963;BME280;6546;49.882;8.666;2023-01-01T11:45:21;100171.97;;;15.48;100.00
12963;BME280;6546;49.882;8.666;2023-01-01T11:47:53;100162.44;;;15.44;100.00
12963;BME280;6546;49.882;8.666;2023-01-01T11:50:25;100160.72;;;15.43;100.00
12963;BME280;6546;49.882;8.666;2023-01-01T11:52:55;100153.78;;;15.44;100.00
12963;BME280;6546;49.882;8.666;2023-01-01T11:55:32;100152.19;;;15.34;100.00
12963;BME280;6546;49.882;8.666;2023-01-01T11:58:07;100145.16;;;15.39;100.00
12963;BME280;6546;49.882;8.666;2023-01-01T12:00:37;100137.34;;;15.37;100.00
12963;BME280;6546;49.882;8.666;2023-01-01T12:03:12;100132.94;;;15.41;100.00
12963;BME280;6546;49.882;8.666;2023-01-01T12:05:46;100129.50;;;15.37;100.00
12963;BME280;6546;49.882;8.666;2023-01-01T12:08:20;100122.41;;;15.48;100.00
12963;BME280;6546;49.882;8.666;2023-01-01T12:10:51;100125.03;;;15.48;100.00
12963;BME280;6546;49.882;8.666;2023-01-01T12:13:21;100116.38;;;15.46;100.00
12963;BME280;6546;49.882;8.666;2023-01-01T12:15:55;100124.16;;;15.48;100.00
12963;BME280;6546;49.882;8.666;2023-01-01T12:18:28;100132.09;;;15.40;100.00
12963;BME280;6546;49.882;8.666;2023-01-01T12:21:00;100132.09;;;15.40;100.00
12963;BME280;6546;49.882;8.666;2023-01-01T12:23:30;100133.88;;;15.38;100.00
12963;BME280;6546;49.882;8.666;2023-01-01T12:26:00;100135.72;;;15.30;100.00
12963;BME280;6546;49.882;8.666;2023-01-01T12:28:35;100137.50;;;15.25;100.00
12963;BME280;6546;49.882;8.666;2023-01-01T12:31:11;100146.13;;;15.30;100.00
12963;BME280;6546;49.882;8.666;2023-01-01T12:33:54;100148.78;;;15.27;100.00
12963;BME280;6546;49.882;8.666;2023-01-01T12:36:31;100151.38;;;15.27;100.00
12963;BME280;6546;49.882;8.666;2023-01-01T12:42:07;100152.25;;;15.25;100.00
12963;BME280;6546;49.882;8.666;2023-01-01T12:44:47;100146.22;;;15.21;100.00
12963;BME280;6546;49.882;8.666;2023-01-01T12:47:31;100137.56;;;15.22;100.00
12963;BME280;6546;49.882;8.666;2023-01-01T12:50:10;100137.56;;;15.22;100.00
12963;BME280;6546;49.882;8.666;2023-01-01T12:52:50;100136.56;;;15.29;100.00
12963;BME280;6546;49.882;8.666;2023-01-01T12:55:50;100142.66;;;15.28;100.00
12963;BME280;6546;49.882;8.666;2023-01-01T12:58:28;100128.81;;;15.26;100.00
12963;BME280;6546;49.882;8.666;2023-01-01T13:00:58;100134.78;;;15.33;100.00
12963;BME280;6546;49.882;8.666;2023-01-01T13:03:29;100146.97;;;15.32;100.00
12963;BME280;6546;49.882;8.666;2023-01-01T13:05:58;100137.41;;;15.34;100.00
12963;BME280;6546;49.882;8.666;2023-01-01T13:08:26;100146.97;;;15.32;100.00
12963;BME280;6546;49.882;8.666;2023-01-01T13:10:55;100135.75;;;15.27;100.00